createdAt,value
2022-12-01T00:04:38.039Z,100049.88
2022-12-01T00:09:59.828Z,100049.81
2022-12-01T00:15:02.736Z,100043.66
2022-12-01T00:20:06.952Z,100053.31
2022-12-01T00:25:11.474Z,100034.09
2022-12-01T00:30:14.906Z,100044.31
2022-12-01T00:35:18.419Z,100040.22
2022-12-01T00:40:22.777Z,100030.94
2022-12-01T00:45:25.902Z,100033.22
2022-12-01T00:50:28.821Z,100037.94
2022-12-01T00:55:33.079Z,100036.00
2022-12-01T01:00:38.673Z,100046.38
2022-12-01T01:05:43.456Z,100039.66
2022-12-01T01:10:49.108Z,100044.56
2022-12-01T01:15:59.798Z,100040.88
2022-12-01T01:21:05.824Z,100037.44
2022-12-01T01:26:13.270Z,100043.75
2022-12-01T01:31:20.453Z,100051.88
2022-12-01T01:36:24.336Z,100050.00
2022-12-01T01:41:28.893Z,100049.38
2022-12-01T01:46:33.809Z,100047.72
2022-12-01T01:51:42.184Z,100052.31
2022-12-01T01:56:49.100Z,100064.03
2022-12-01T02:01:58.376Z,100053.03
2022-12-01T02:07:01.803Z,100046.41
2022-12-01T02:12:22.071Z,100047.50
2022-12-01T02:17:41.383Z,100041.22
2022-12-01T02:22:56.871Z,100048.88
2022-12-01T02:28:23.280Z,100047.66
2022-12-01T02:33:36.691Z,100047.66
2022-12-01T02:38:44.462Z,100056.91
2022-12-01T02:43:56.521Z,100055.13
2022-12-01T02:49:05.775Z,100057.59
2022-12-01T02:54:09.909Z,100059.34
2022-12-01T02:59:15.194Z,100055.84
2022-12-01T03:04:40.093Z,100056.09
2022-12-01T03:09:52.990Z,100056.34
2022-12-01T03:15:04.348Z,100047.28
2022-12-01T03:20:15.985Z,100043.28
2022-12-01T03:25:20.985Z,100045.19
2022-12-01T03:30:24.992Z,100045.13
2022-12-01T03:35:35.957Z,100049.25
2022-12-01T03:40:40.415Z,100050.63
2022-12-01T03:45:55.754Z,100050.19
2022-12-01T03:51:15.054Z,100054.81
2022-12-01T03:56:21.875Z,100065.47
2022-12-01T04:01:26.518Z,100054.31
2022-12-01T04:06:30.907Z,100066.41
2022-12-01T04:11:51.079Z,100069.56
2022-12-01T04:16:54.119Z,100064.75
2022-12-01T04:21:58.433Z,100061.22
2022-12-01T04:27:01.285Z,100063.13
2022-12-01T04:32:04.334Z,100058.66
2022-12-01T04:37:09.980Z,100057.47
2022-12-01T04:42:12.961Z,100059.34
2022-12-01T04:47:15.940Z,100067.66
2022-12-01T04:52:20.211Z,100063.81
2022-12-01T04:57:23.089Z,100054.78
2022-12-01T05:02:26.009Z,100065.53
2022-12-01T05:07:30.479Z,100057.25
2022-12-01T05:12:33.974Z,100062.88
2022-12-01T05:17:37.333Z,100076.47
2022-12-01T05:23:04.254Z,100083.50
2022-12-01T05:28:04.877Z,100076.00
2022-12-01T05:33:07.852Z,100071.47
2022-12-01T05:38:12.284Z,100070.81
2022-12-01T05:43:15.216Z,100079.41
2022-12-01T05:48:18.359Z,100087.69
2022-12-01T05:53:22.936Z,100089.00
2022-12-01T05:58:25.866Z,100090.22
2022-12-01T06:03:28.878Z,100091.13
2022-12-01T06:08:33.265Z,100087.78
2022-12-01T06:13:36.239Z,100086.28
2022-12-01T06:18:40.697Z,100087.38
2022-12-01T06:23:44.949Z,100091.94
2022-12-01T06:28:47.852Z,100098.28
2022-12-01T06:33:50.804Z,100100.03
2022-12-01T06:38:55.134Z,100100.63
2022-12-01T06:43:58.215Z,100111.53
2022-12-01T06:49:01.183Z,100113.75
2022-12-01T06:54:05.958Z,100113.28
2022-12-01T06:59:09.000Z,100115.75
2022-12-01T07:04:12.158Z,100116.22
2022-12-01T07:09:16.440Z,100120.91
2022-12-01T07:14:23.726Z,100125.44
2022-12-01T07:19:26.918Z,100129.09
2022-12-01T07:24:31.890Z,100133.56
2022-12-01T07:29:34.897Z,100140.34
2022-12-01T07:34:37.783Z,100138.59
2022-12-01T07:39:42.056Z,100138.75
2022-12-01T07:44:45.034Z,100136.38
2022-12-01T07:49:48.327Z,100133.19
2022-12-01T07:54:52.854Z,100140.25
2022-12-01T07:59:55.785Z,100141.91
2022-12-01T08:04:58.665Z,100146.94
2022-12-01T08:45:37.988Z,100151.50
2022-12-01T09:09:16.589Z,100160.53
2022-12-01T09:15:32.797Z,100159.94
2022-12-01T09:30:54.454Z,100161.09
2022-12-01T09:35:59.329Z,100158.25
2022-12-01T09:41:05.494Z,100148.31
2022-12-01T09:46:17.187Z,100157.13
2022-12-01T09:51:22.486Z,100157.84
2022-12-01T09:56:27.474Z,100157.84
2022-12-01T10:01:35.829Z,100152.66
2022-12-01T10:06:41.187Z,100144.66
2022-12-01T10:11:47.103Z,100141.91
2022-12-01T10:17:00.563Z,100142.25
2022-12-01T10:22:23.759Z,100135.78
2022-12-01T10:27:36.846Z,100134.41
2022-12-01T10:32:53.738Z,100133.28
2022-12-01T10:38:07.931Z,100129.50
2022-12-01T10:43:11.845Z,100124.03
2022-12-01T10:48:19.309Z,100118.00
2022-12-01T10:53:29.555Z,100114.94
2022-12-01T10:58:34.849Z,100115.00
2022-12-01T11:03:41.417Z,100110.44
2022-12-01T11:08:47.305Z,100113.44
2022-12-01T11:13:50.396Z,100105.53
2022-12-01T11:19:09.260Z,100113.59
2022-12-01T11:24:29.059Z,100108.97
2022-12-01T11:29:36.942Z,100113.84
2022-12-01T11:34:42.182Z,100099.22
2022-12-01T11:39:48.332Z,100095.56
2022-12-01T11:44:54.437Z,100098.22
2022-12-01T11:50:01.413Z,100099.97
2022-12-01T11:55:22.783Z,100088.91
2022-12-01T12:00:28.898Z,100087.53
2022-12-01T12:06:38.347Z,100081.59
2022-12-01T12:11:40.289Z,100077.69
2022-12-01T12:17:02.869Z,100073.69
2022-12-01T12:22:21.456Z,100083.19
2022-12-01T12:27:34.128Z,100076.34
2022-12-01T12:32:58.445Z,100067.97
2022-12-01T12:38:09.095Z,100070.84
2022-12-01T12:43:30.478Z,100072.34
2022-12-01T12:49:18.560Z,100076.56
2022-12-01T12:54:27.329Z,100070.53
2022-12-01T12:59:35.398Z,100070.06
2022-12-01T13:04:44.150Z,100069.50
2022-12-01T13:09:58.309Z,100073.25
2022-12-01T13:15:15.382Z,100069.66
2022-12-01T13:20:21.861Z,100067.84
2022-12-01T13:25:31.404Z,100065.31
2022-12-01T13:30:34.390Z,100067.19
2022-12-01T13:35:40.076Z,100072.00
2022-12-01T13:40:44.537Z,100076.69
2022-12-01T13:45:49.351Z,100076.06
2022-12-01T13:50:58.079Z,100071.53
2022-12-01T13:56:44.057Z,100072.59
2022-12-01T14:02:07.366Z,100062.31
2022-12-01T14:07:20.524Z,100070.16
2022-12-01T14:12:29.110Z,100063.31
2022-12-01T14:17:36.071Z,100058.81
2022-12-01T14:22:42.007Z,100056.50
2022-12-01T14:27:44.996Z,100051.38
2022-12-01T14:32:49.267Z,100052.69
2022-12-01T14:37:52.231Z,100056.50
2022-12-01T14:43:16.598Z,100050.66
2022-12-01T14:48:26.553Z,100055.50
2022-12-01T14:53:33.585Z,100053.50
2022-12-01T14:58:36.486Z,100053.50
2022-12-01T15:03:43.367Z,100040.84
2022-12-01T15:09:04.244Z,100043.09
2022-12-01T15:14:23.930Z,100038.19
2022-12-01T15:19:37.527Z,100034.50
2022-12-01T15:24:42.562Z,100033.91
2022-12-01T15:29:47.021Z,100034.00
2022-12-01T15:34:54.808Z,100035.31
2022-12-01T15:45:25.215Z,100041.78
2022-12-01T15:50:33.419Z,100043.31
2022-12-01T15:55:39.537Z,100043.69
2022-12-01T16:00:42.507Z,100042.50
2022-12-01T16:05:46.983Z,100048.56
2022-12-01T16:11:11.284Z,100049.69
2022-12-01T16:16:38.109Z,100063.88
2022-12-01T16:21:47.698Z,100056.03
2022-12-01T16:26:52.871Z,100057.19
2022-12-01T16:32:19.159Z,100056.41
2022-12-01T16:37:23.369Z,100053.59
2022-12-01T16:42:26.349Z,100054.03
2022-12-01T16:47:33.159Z,100058.63
2022-12-01T16:52:45.597Z,100055.59
2022-12-01T16:57:49.002Z,100057.59
2022-12-01T17:02:52.700Z,100056.09
2022-12-01T17:07:57.192Z,100054.19
2022-12-01T17:13:00.197Z,100062.56
2022-12-01T17:18:03.088Z,100057.88
2022-12-01T17:23:07.505Z,100048.44
2022-12-01T17:28:10.451Z,100053.06
2022-12-01T17:33:13.682Z,100043.16
2022-12-01T17:38:17.956Z,100054.72
2022-12-01T17:43:20.919Z,100048.72
2022-12-01T17:48:23.933Z,100064.50
2022-12-01T17:53:29.198Z,100058.19
2022-12-01T17:58:32.635Z,100057.66
2022-12-01T18:03:35.544Z,100059.72
2022-12-01T18:08:40.833Z,100066.09
2022-12-01T18:13:46.460Z,100063.84
2022-12-01T18:18:49.975Z,100065.72
2022-12-01T18:23:55.684Z,100061.53
2022-12-01T18:29:00.829Z,100068.97
2022-12-01T18:34:06.826Z,100056.25
2022-12-01T18:39:12.611Z,100055.97
2022-12-01T18:44:15.598Z,100052.03
2022-12-01T18:49:18.701Z,100046.97
2022-12-01T18:54:23.078Z,100052.44
2022-12-01T18:59:26.284Z,100044.16
2022-12-01T19:04:29.425Z,100045.88
2022-12-01T19:09:33.708Z,100047.31
2022-12-01T19:14:36.856Z,100042.50
2022-12-01T19:19:39.864Z,100041.94
2022-12-01T19:24:49.884Z,100035.56
2022-12-01T19:29:53.973Z,100040.19
2022-12-01T19:34:57.241Z,100045.06
2022-12-01T19:40:01.754Z,100036.97
2022-12-01T19:45:05.638Z,100039.34
2022-12-01T19:50:09.989Z,100036.13
2022-12-01T19:55:14.246Z,100030.84
2022-12-01T20:00:17.850Z,100028.59
2022-12-01T20:05:20.715Z,100033.19
2022-12-01T20:10:25.025Z,100032.47
2022-12-01T20:15:27.947Z,100030.00
2022-12-01T20:20:30.858Z,100029.88
2022-12-01T20:25:35.708Z,100030.56
2022-12-01T20:30:41.166Z,100029.94
2022-12-01T20:35:44.242Z,100028.53
2022-12-01T20:40:51.033Z,100023.84
2022-12-01T20:45:54.074Z,100025.91
2022-12-01T20:50:57.452Z,100021.50
2022-12-01T20:56:04.830Z,100013.75
2022-12-01T21:01:09.710Z,100003.78
2022-12-01T21:06:14.602Z,100010.03
2022-12-01T21:11:43.533Z,100015.75
2022-12-01T21:16:49.361Z,100010.94
2022-12-01T21:21:52.407Z,100012.28
2022-12-01T21:27:00.459Z,100014.28
2022-12-01T21:32:13.553Z,100005.81
2022-12-01T21:37:22.025Z,100006.63
2022-12-01T21:42:29.251Z,100014.25
2022-12-01T21:47:32.177Z,100010.56
2022-12-01T21:52:41.050Z,100007.16
2022-12-01T21:57:47.659Z,99987.09
2022-12-01T22:02:52.620Z,99985.91
2022-12-01T22:08:00.798Z,99995.78
2022-12-01T22:13:10.399Z,99983.56
2022-12-01T22:18:22.207Z,99993.00
2022-12-01T22:23:32.982Z,99998.03
2022-12-01T22:28:37.411Z,99997.38
2022-12-01T22:33:40.356Z,100001.66
2022-12-01T22:38:44.194Z,99989.75
2022-12-01T22:43:49.733Z,99988.41
2022-12-01T22:48:54.999Z,99987.84
2022-12-01T22:54:21.472Z,99982.34
2022-12-01T22:59:30.675Z,99981.13
2022-12-01T23:04:35.528Z,99970.00
2022-12-01T23:09:41.484Z,99972.50
2022-12-01T23:14:48.661Z,99967.47
2022-12-01T23:19:53.900Z,99957.63
2022-12-01T23:24:57.163Z,99952.28
2022-12-01T23:30:01.587Z,99945.63
2022-12-01T23:35:05.410Z,99949.84
2022-12-01T23:40:19.568Z,99942.28
2022-12-01T23:45:27.029Z,99935.00
2022-12-01T23:50:31.576Z,99937.09
2022-12-01T23:55:35.487Z,99937.16
